Ana Sayfa
METAR-TAF:

METAR-TAF

Havaalanları :

Latrobe, Pensilvanya, Amerika Birleşik Devletleri

Enlem: 40-17N, Boylam: 079-24W, yükseklik: 361 m

Güncel hava durumu gözlemi

Rapor saat 19:50 UTC de 1 saat ve 6 dakika önce yapıldı.
Rüzgar batı/kuzeybatıdan 14 kt
Sıcaklık 17°C
Nem 39%
Basınç 1023 hPa
Görüş mesafesi: 16.1 km
5000 ft yükseklikte parçalı bulutlu

METAR: KLBE 311950Z 30014KT 10SM SCT050 17/03 A3021

Saat: 16:56 (20:56 UTC)

Tahmin

Rapor saat 17:34 UTC de 3 saat ve 22 dakika önce yapıldı.
Ayın 31'si saat 18 UTC'den ayın 01'si saat 18 UTC'ye kadar geçerli Tahmin
Rüzgar batı/kuzeybatıdan 14 kt
Görüş mesafesi: 10 km
5000 ft yükseklikte parçalı çok bulutlu
Ayın 01'si saat 0000 UTC'den
Rüzgar kuzeydan kt
Görüş mesafesi: 10 km
Açık gökyüzü
Ayın 01'si saat 1200 UTC'den
Rüzgar batı/güneybatıdan 5 kt
Görüş mesafesi: 10 km
25000 ft yükseklikte parçalı bulutlu

TAF: KLBE 311734Z 3118/0118 30014KT P6SM BKN050 FM010000 00000KT P6SM SKC FM011200 25005KT P6SM SCT250

4.000'den fazla havaalanı için hava durumu gözlemleri ve tahminleri (METAR ve TAF raporları).

Kullanılabilir istasyonlar harita üzerinde sarı ve kırmızı noktalarla gösterilir.

İstasyonun adını görmek için fareyi noktanın üzerinde gezdirin.

Sonrasında hava gözlem ve tahminlerini görmek için tıklayın.

Haritayı değiştirmek için: yaklaştırmak için siyah artı işaretli yeşil düğmeye ve uzaklaştırmak için de eksi işaretli düğmeye hızla tıklayın; bitişik haritalar için yeşil okları kullanın.


METAR-TAF: